createdAt,value
2022-12-17T00:00:15.571Z,12.82
2022-12-17T00:05:34.875Z,31.10
2022-12-17T00:10:54.351Z,15.75
2022-12-17T00:16:13.923Z,12.63
2022-12-17T00:21:33.125Z,10.18
2022-12-17T00:26:53.025Z,9.93
2022-12-17T00:32:13.345Z,12.57
2022-12-17T00:37:32.989Z,11.90
2022-12-17T00:42:52.562Z,11.57
2022-12-17T00:48:15.541Z,10.20
2022-12-17T00:53:35.922Z,10.02
2022-12-17T00:58:55.597Z,10.45
2022-12-17T01:04:16.028Z,10.63
2022-12-17T01:09:35.604Z,14.10
2022-12-17T01:14:55.159Z,12.98
2022-12-17T01:20:14.615Z,38.72
2022-12-17T01:25:34.197Z,44.22
2022-12-17T01:30:56.205Z,11.48
2022-12-17T01:36:17.025Z,13.17
2022-12-17T01:41:37.100Z,10.65
2022-12-17T01:47:02.542Z,68.82
2022-12-17T01:52:22.059Z,33.35
2022-12-17T01:57:43.403Z,14.10
2022-12-17T02:03:03.225Z,11.55
2022-12-17T02:08:43.179Z,11.93
2022-12-17T02:14:21.944Z,11.12
2022-12-17T02:20:38.497Z,15.88
2022-12-17T02:26:08.034Z,9.63
2022-12-17T02:31:31.418Z,15.07
2022-12-17T02:36:53.350Z,53.22
2022-12-17T02:42:15.900Z,21.80
2022-12-17T02:47:37.809Z,9.52
2022-12-17T02:53:00.857Z,9.68
2022-12-17T02:58:20.352Z,9.27
2022-12-17T03:03:40.756Z,13.82
2022-12-17T03:09:01.318Z,10.30
2022-12-17T03:14:21.148Z,14.77
2022-12-17T03:19:40.589Z,10.80
2022-12-17T03:25:00.092Z,10.77
2022-12-17T03:30:19.806Z,10.32
2022-12-17T03:35:39.827Z,13.18
2022-12-17T03:40:59.478Z,8.23
2022-12-17T03:46:19.001Z,8.32
2022-12-17T03:51:38.391Z,9.68
2022-12-17T03:56:57.786Z,8.95
2022-12-17T04:02:18.421Z,7.32
2022-12-17T04:07:37.660Z,17.37
2022-12-17T04:12:57.044Z,8.27
2022-12-17T04:18:16.481Z,11.02
2022-12-17T04:23:36.197Z,9.32
2022-12-17T04:28:55.857Z,15.35
2022-12-17T04:34:15.379Z,7.72
2022-12-17T04:39:35.401Z,7.22
2022-12-17T04:44:54.814Z,35.08
2022-12-17T04:50:14.525Z,32.85
2022-12-17T04:55:33.918Z,12.13
2022-12-17T05:00:53.322Z,10.55
2022-12-17T05:06:12.869Z,13.85
2022-12-17T05:11:32.237Z,14.38
2022-12-17T05:16:51.744Z,11.95
2022-12-17T05:22:11.134Z,13.68
2022-12-17T05:27:30.670Z,10.23
2022-12-17T05:32:50.121Z,11.90
2022-12-17T05:38:09.780Z,10.48
2022-12-17T05:43:31.411Z,10.00
2022-12-17T05:48:52.084Z,10.38
2022-12-17T05:54:12.360Z,11.48
2022-12-17T05:59:32.025Z,12.52
2022-12-17T06:04:51.475Z,12.90
2022-12-17T06:10:11.441Z,15.32
2022-12-17T06:15:30.869Z,14.35
2022-12-17T06:20:50.516Z,15.55
2022-12-17T06:26:10.922Z,12.35
2022-12-17T06:31:30.734Z,11.50
2022-12-17T06:36:50.211Z,13.62
2022-12-17T06:42:09.665Z,10.55
2022-12-17T06:47:29.512Z,11.12
2022-12-17T06:52:49.024Z,12.70
2022-12-17T06:58:14.875Z,13.30
2022-12-17T07:03:35.045Z,10.23
2022-12-17T07:08:55.045Z,9.60
2022-12-17T07:14:16.488Z,12.55
2022-12-17T07:19:35.893Z,14.75
2022-12-17T07:24:55.476Z,9.82
2022-12-17T07:30:14.942Z,15.00
2022-12-17T07:35:35.216Z,15.93
2022-12-17T07:40:54.682Z,14.73
2022-12-17T07:46:14.683Z,22.17
2022-12-17T07:51:34.167Z,18.60
2022-12-17T07:56:53.599Z,15.82
2022-12-17T08:02:15.003Z,15.73
2022-12-17T08:07:34.502Z,24.98
2022-12-17T08:12:53.960Z,11.63
2022-12-17T08:18:26.348Z,26.20
2022-12-17T08:23:46.396Z,72.68
2022-12-17T08:29:05.874Z,117.25
2022-12-17T08:34:25.890Z,118.43
2022-12-17T08:39:45.448Z,79.43
2022-12-17T08:45:05.260Z,55.22
2022-12-17T08:50:25.886Z,55.25
2022-12-17T08:55:45.594Z,52.85
2022-12-17T09:01:05.125Z,38.22
2022-12-17T09:06:25.018Z,27.67
2022-12-17T09:11:44.416Z,21.12
2022-12-17T09:17:03.876Z,29.23
2022-12-17T09:23:26.986Z,28.27
2022-12-17T09:28:46.721Z,28.20
2022-12-17T09:34:06.198Z,21.62
2022-12-17T09:39:25.700Z,18.75
2022-12-17T09:44:59.929Z,19.10
2022-12-17T09:50:22.649Z,18.50
2022-12-17T09:55:48.284Z,18.45
2022-12-17T10:01:10.300Z,19.33
2022-12-17T10:06:34.920Z,16.58
2022-12-17T10:11:54.454Z,18.80
2022-12-17T10:17:13.903Z,16.77
2022-12-17T10:22:39.175Z,27.33
2022-12-17T10:27:59.567Z,17.77
2022-12-17T10:33:23.984Z,21.02
2022-12-17T10:38:48.437Z,19.02
2022-12-17T10:44:08.085Z,23.55
2022-12-17T10:49:30.942Z,24.73
2022-12-17T10:54:52.161Z,23.27
2022-12-17T11:00:12.159Z,22.15
2022-12-17T11:05:59.459Z,22.62
2022-12-17T11:11:22.302Z,23.52
2022-12-17T11:16:52.829Z,25.27
2022-12-17T11:22:15.764Z,25.15
2022-12-17T11:27:42.302Z,23.95
2022-12-17T11:33:55.346Z,25.10
2022-12-17T11:39:27.953Z,29.80
2022-12-17T11:45:31.207Z,21.70
2022-12-17T11:52:26.870Z,39.67
2022-12-17T11:59:41.240Z,23.25
2022-12-17T12:05:22.125Z,24.55
2022-12-17T12:10:58.821Z,28.55
2022-12-17T12:20:09.644Z,28.90
2022-12-17T12:26:34.370Z,26.42
2022-12-17T12:32:16.348Z,24.73
2022-12-17T12:37:38.680Z,30.80
2022-12-17T12:43:08.836Z,29.70
2022-12-17T12:50:31.666Z,34.55
2022-12-17T12:55:56.828Z,37.20
2022-12-17T13:01:16.356Z,36.10
2022-12-17T13:06:55.482Z,40.12
2022-12-17T13:13:35.341Z,52.58
2022-12-17T13:18:41.305Z,32.63
2022-12-17T13:23:42.837Z,33.75
2022-12-17T13:29:47.981Z,33.22
2022-12-17T13:35:08.478Z,37.85
2022-12-17T13:41:33.945Z,36.35
2022-12-17T13:46:46.601Z,33.88
2022-12-17T13:57:36.718Z,40.20
2022-12-17T14:02:38.348Z,44.15
2022-12-17T14:07:39.969Z,39.03
2022-12-17T14:12:41.150Z,33.72
2022-12-17T14:17:46.054Z,33.70
2022-12-17T14:23:33.457Z,33.60
2022-12-17T14:28:37.424Z,43.47
2022-12-17T14:33:38.659Z,34.58
2022-12-17T14:38:42.978Z,34.70
2022-12-17T14:43:55.350Z,35.60
2022-12-17T14:49:01.531Z,48.65
2022-12-17T14:54:29.192Z,48.33
2022-12-17T14:59:35.712Z,48.50
2022-12-17T15:04:38.592Z,46.75
2022-12-17T15:09:42.068Z,39.67
2022-12-17T15:14:42.858Z,37.67
2022-12-17T15:19:43.848Z,42.58
2022-12-17T15:24:45.063Z,43.72
2022-12-17T15:29:45.941Z,38.85
2022-12-17T15:34:47.181Z,39.30
2022-12-17T15:39:48.014Z,44.47
2022-12-17T15:44:48.745Z,47.83
2022-12-17T15:49:49.843Z,58.40
2022-12-17T15:54:50.575Z,81.78
2022-12-17T15:59:51.374Z,106.05
2022-12-17T16:04:52.256Z,137.40
2022-12-17T16:09:53.348Z,49.20
2022-12-17T16:14:54.187Z,28.17
2022-12-17T16:19:54.974Z,22.55
2022-12-17T16:24:55.737Z,37.22
2022-12-17T16:29:56.514Z,51.37
2022-12-17T16:34:57.351Z,57.25
2022-12-17T16:40:00.419Z,45.28
2022-12-17T16:45:01.623Z,32.47
2022-12-17T16:50:03.022Z,17.70
2022-12-17T16:55:04.776Z,16.60
2022-12-17T17:00:07.011Z,16.70
2022-12-17T17:05:08.073Z,15.90
2022-12-17T17:10:09.302Z,12.02
2022-12-17T17:15:10.448Z,13.18
2022-12-17T17:20:12.252Z,15.07
2022-12-17T17:25:13.019Z,10.65
2022-12-17T17:30:13.820Z,9.85
2022-12-17T17:35:15.659Z,12.25
2022-12-17T17:40:16.435Z,10.57
2022-12-17T17:45:17.175Z,9.63
2022-12-17T17:50:17.931Z,11.88
2022-12-17T17:55:18.714Z,11.75
2022-12-17T18:00:19.649Z,9.73
2022-12-17T18:05:20.466Z,10.98
2022-12-17T18:10:21.251Z,10.48
2022-12-17T18:15:22.316Z,8.45
2022-12-17T18:20:23.110Z,11.38
2022-12-17T18:25:23.908Z,14.05
2022-12-17T18:30:24.701Z,9.50
2022-12-17T18:35:26.686Z,8.25
2022-12-17T18:40:32.899Z,8.53
2022-12-17T18:45:37.619Z,8.85
2022-12-17T18:50:38.363Z,13.05
2022-12-17T18:55:40.283Z,18.30
2022-12-17T19:00:41.108Z,14.60
2022-12-17T19:05:46.557Z,32.10
2022-12-17T19:10:49.025Z,31.90
2022-12-17T19:15:50.153Z,21.23
2022-12-17T19:20:56.582Z,22.27
2022-12-17T19:26:08.019Z,25.33
2022-12-17T19:31:09.453Z,14.50
2022-12-17T19:36:17.097Z,7.50
2022-12-17T19:41:18.674Z,15.63
2022-12-17T19:46:19.894Z,18.40
2022-12-17T19:51:23.225Z,19.12
2022-12-17T19:56:27.272Z,31.15
2022-12-17T20:01:31.403Z,43.05
2022-12-17T20:06:34.418Z,47.30
2022-12-17T20:16:40.526Z,63.78
2022-12-17T20:21:41.559Z,64.72
2022-12-17T20:26:44.107Z,75.80
2022-12-17T20:31:49.930Z,93.53
2022-12-17T20:36:52.203Z,95.47
2022-12-17T20:41:53.193Z,80.90
2022-12-17T20:46:54.787Z,77.53
2022-12-17T20:51:55.684Z,70.57
2022-12-17T20:56:56.647Z,75.30
2022-12-17T21:01:57.475Z,59.53
2022-12-17T21:06:58.425Z,49.13
2022-12-17T21:11:59.221Z,55.78
2022-12-17T21:17:00.469Z,87.43
2022-12-17T21:22:01.588Z,59.92
2022-12-17T21:27:02.597Z,70.95
2022-12-17T21:32:04.115Z,59.85
2022-12-17T21:37:04.955Z,66.30
2022-12-17T21:42:29.015Z,61.75
2022-12-17T21:47:29.849Z,51.45
2022-12-17T21:52:30.647Z,47.05
2022-12-17T21:57:31.358Z,61.67
2022-12-17T22:02:32.356Z,69.20
2022-12-17T22:07:36.180Z,142.05
2022-12-17T22:13:01.662Z,71.07
2022-12-17T22:18:02.610Z,51.95
2022-12-17T22:23:04.591Z,33.17
2022-12-17T22:28:05.816Z,97.30
2022-12-17T22:33:26.312Z,105.55
2022-12-17T22:44:28.525Z,97.57
2022-12-17T22:49:41.124Z,83.12
2022-12-17T22:54:44.820Z,70.70
2022-12-17T22:59:46.339Z,93.30
2022-12-17T23:04:47.319Z,84.35
2022-12-17T23:09:48.273Z,60.58
2022-12-17T23:14:49.038Z,41.67
2022-12-17T23:19:49.789Z,43.15
2022-12-17T23:24:50.729Z,36.17
2022-12-17T23:29:51.480Z,35.75
2022-12-17T23:34:52.303Z,34.33
2022-12-17T23:39:53.142Z,34.20
2022-12-17T23:44:53.878Z,41.55
2022-12-17T23:49:54.605Z,45.78
2022-12-17T23:57:12.942Z,43.30
